Time;durP1;ratioP1;P1;durP2;ratioP2;P2;SDS_P1;SDS_P2;PMS_P1;PMS_P2;Temp;Humidity;BMP_temperature;BMP_pressure;BME280_temperature;BME280_humidity;BME280_pressure;Samples;Min_cycle;Max_cycle;Signal;HPM_P1;HPM_P2
2021/10/08 00:02:02;;;;;;;5.78;1.80;;;22.10;58.10;;;;;;5015346;28;20545;-65
2021/10/08 00:04:28;;;;;;;4.75;1.80;;;22.10;58.10;;;;;;5014552;28;20049;-66
2021/10/08 00:06:54;;;;;;;6.93;1.67;;;22.10;58.10;;;;;;5016693;28;20037;-65
2021/10/08 00:09:22;;;;;;;5.05;1.80;;;22.10;58.00;;;;;;5013629;28;20052;-66
2021/10/08 00:11:48;;;;;;;4.25;1.50;;;22.10;58.00;;;;;;5015936;28;20033;-66
2021/10/08 00:14:13;;;;;;;7.03;1.90;;;22.10;58.10;;;;;;5014211;28;20666;-66
2021/10/08 00:16:39;;;;;;;5.05;1.88;;;22.10;58.10;;;;;;5015412;28;20103;-66
2021/10/08 00:19:04;;;;;;;7.03;2.10;;;22.10;58.10;;;;;;5015523;28;20041;-66
2021/10/08 00:21:31;;;;;;;5.95;2.17;;;22.10;58.20;;;;;;5014186;28;20034;-65
2021/10/08 00:23:56;;;;;;;4.22;1.52;;;22.10;58.10;;;;;;5014163;28;20052;-65
2021/10/08 00:26:22;;;;;;;4.95;1.90;;;22.10;58.20;;;;;;5014406;28;20045;-66
2021/10/08 00:28:48;;;;;;;5.78;1.90;;;22.10;58.20;;;;;;5013576;28;20056;-65
2021/10/08 00:31:14;;;;;;;4.95;1.60;;;22.10;58.20;;;;;;5020048;28;20042;-66
2021/10/08 00:33:40;;;;;;;5.53;1.73;;;22.10;58.10;;;;;;5018812;28;20038;-65
2021/10/08 00:36:06;;;;;;;4.97;1.55;;;22.10;58.20;;;;;;5016733;28;20052;-66
2021/10/08 00:38:32;;;;;;;5.45;1.88;;;22.10;58.00;;;;;;5027402;28;20045;-66
2021/10/08 00:40:57;;;;;;;5.68;1.60;;;22.10;58.20;;;;;;5015600;28;20065;-65
2021/10/08 00:43:23;;;;;;;4.20;1.70;;;22.10;58.20;;;;;;5016008;28;20042;-65
2021/10/08 00:45:49;;;;;;;5.95;1.85;;;22.10;58.10;;;;;;5014412;28;20053;-66
2021/10/08 00:48:15;;;;;;;4.00;1.45;;;22.10;58.20;;;;;;5014004;28;20037;-66
2021/10/08 00:50:48;;;;;;;4.18;1.52;;;22.10;58.20;;;;;;5013763;28;20045;-65
2021/10/08 00:53:14;;;;;;;7.72;1.63;;;22.10;58.20;;;;;;5013774;28;20486;-65
2021/10/08 00:55:43;;;;;;;3.72;1.52;;;22.10;58.20;;;;;;5014916;28;20052;-66
2021/10/08 00:58:10;;;;;;;5.50;1.67;;;22.10;58.20;;;;;;5013617;28;20087;-66
2021/10/08 01:00:40;;;;;;;4.50;1.40;;;22.10;58.10;;;;;;5016633;28;20118;-66
2021/10/08 01:03:05;;;;;;;5.70;1.77;;;22.10;58.20;;;;;;5013563;28;20042;-65
2021/10/08 01:05:31;;;;;;;5.72;1.65;;;22.10;58.20;;;;;;5015214;28;20099;-65
2021/10/08 01:07:56;;;;;;;4.95;1.65;;;22.10;58.20;;;;;;5011365;28;20037;-65
2021/10/08 01:10:24;;;;;;;5.30;1.60;;;22.00;58.00;;;;;;5020357;28;20044;-66
2021/10/08 01:12:50;;;;;;;5.20;1.48;;;22.10;58.20;;;;;;5014234;28;20620;-66
2021/10/08 01:15:16;;;;;;;4.10;1.40;;;22.10;58.10;;;;;;5014512;28;20053;-66
2021/10/08 01:17:51;;;;;;;6.03;1.55;;;22.10;58.20;;;;;;5019638;28;20142;-65
2021/10/08 01:20:17;;;;;;;9.80;1.60;;;22.10;58.20;;;;;;5029915;28;20133;-65
2021/10/08 01:22:50;;;;;;;5.13;1.77;;;22.10;58.30;;;;;;5015228;28;20037;-66
2021/10/08 01:25:18;;;;;;;7.85;1.60;;;22.00;58.00;;;;;;5017640;28;20041;-66
2021/10/08 01:27:44;;;;;;;5.30;1.35;;;22.10;58.10;;;;;;5019648;28;20038;-66
2021/10/08 01:30:17;;;;;;;4.18;1.60;;;22.00;58.00;;;;;;5015082;28;20604;-65
2021/10/08 01:32:47;;;;;;;4.75;1.40;;;22.10;58.10;;;;;;5024484;28;20041;-64
2021/10/08 01:35:14;;;;;;;5.40;1.60;;;22.10;58.10;;;;;;5018487;28;20109;-66
2021/10/08 01:37:42;;;;;;;5.00;1.30;;;22.00;57.90;;;;;;5016345;28;20055;-66
2021/10/08 01:40:08;;;;;;;3.92;1.63;;;22.00;57.90;;;;;;5017696;28;20525;-64
2021/10/08 01:42:37;;;;;;;4.20;1.50;;;22.10;58.10;;;;;;5033289;28;20036;-64
2021/10/08 01:45:06;;;;;;;3.78;1.38;;;22.00;57.90;;;;;;5020980;28;20181;-66
2021/10/08 01:47:31;;;;;;;4.13;1.45;;;22.00;57.90;;;;;;5019254;28;20073;-65
2021/10/08 01:49:58;;;;;;;7.95;1.40;;;22.00;58.00;;;;;;5025265;28;20518;-65
2021/10/08 01:52:23;;;;;;;5.53;1.40;;;22.00;57.80;;;;;;5017057;28;20046;-65
2021/10/08 01:54:49;;;;;;;3.92;1.40;;;22.00;57.90;;;;;;5017835;28;20045;-66
2021/10/08 01:57:17;;;;;;;4.18;1.33;;;22.00;57.90;;;;;;5024835;28;20144;-65
2021/10/08 01:59:43;;;;;;;5.43;1.50;;;22.00;57.80;;;;;;5016263;28;20041;-64
2021/10/08 02:02:12;;;;;;;6.88;1.40;;;22.00;57.80;;;;;;5031223;28;20124;-66
2021/10/08 02:04:39;;;;;;;6.32;1.20;;;22.00;57.90;;;;;;5019949;28;20045;-67
2021/10/08 02:07:05;;;;;;;4.90;1.33;;;22.00;57.80;;;;;;5019229;28;20120;-67
2021/10/08 02:09:31;;;;;;;4.07;1.20;;;22.00;57.90;;;;;;5031692;28;20030;-67
2021/10/08 02:11:57;;;;;;;3.55;1.20;;;22.00;57.90;;;;;;5017306;28;20079;-67
2021/10/08 02:14:22;;;;;;;3.42;1.20;;;22.00;57.80;;;;;;5018373;28;20033;-67
2021/10/08 02:16:51;;;;;;;3.58;1.30;;;22.00;57.80;;;;;;5017165;28;20034;-67
2021/10/08 02:19:17;;;;;;;3.78;1.30;;;22.00;57.80;;;;;;5015790;28;20045;-67
2021/10/08 02:21:48;;;;;;;7.53;1.67;;;22.00;57.70;;;;;;5024175;28;20473;-67
2021/10/08 02:24:17;;;;;;;4.60;1.23;;;22.00;57.60;;;;;;5023317;28;20037;-67
2021/10/08 02:26:46;;;;;;;3.63;1.23;;;22.00;57.60;;;;;;5016697;28;20130;-67
2021/10/08 02:29:21;;;;;;;5.22;1.30;;;22.00;57.70;;;;;;5017669;28;20066;-67
2021/10/08 02:31:48;;;;;;;3.83;1.20;;;22.00;57.70;;;;;;5016709;28;20494;-67
2021/10/08 02:34:14;;;;;;;5.88;1.38;;;22.00;57.60;;;;;;5023692;28;20083;-67
2021/10/08 02:36:40;;;;;;;2.78;1.02;;;22.00;57.70;;;;;;5030897;28;20127;-67
2021/10/08 02:39:05;;;;;;;3.40;1.10;;;22.00;57.70;;;;;;5024275;28;20083;-67
2021/10/08 02:41:32;;;;;;;3.90;1.10;;;22.00;57.70;;;;;;5017858;28;20052;-67
2021/10/08 02:43:57;;;;;;;3.17;1.10;;;22.00;57.60;;;;;;5023795;28;20050;-67
2021/10/08 02:46:23;;;;;;;4.43;1.25;;;22.00;57.60;;;;;;5020650;28;20065;-67
2021/10/08 02:48:49;;;;;;;3.95;1.13;;;22.00;57.60;;;;;;5023571;28;20124;-67
2021/10/08 02:51:15;;;;;;;3.72;1.13;;;22.00;57.60;;;;;;5015476;28;20423;-67
2021/10/08 02:53:40;;;;;;;4.43;1.40;;;22.00;57.50;;;;;;5016933;28;20682;-67
2021/10/08 02:56:06;;;;;;;3.47;1.10;;;22.00;57.50;;;;;;5022499;28;20057;-67
2021/10/08 02:58:32;;;;;;;5.85;1.00;;;22.00;57.60;;;;;;5033038;28;20043;-67
2021/10/08 03:00:58;;;;;;;3.80;1.13;;;22.00;57.50;;;;;;5020381;28;20045;-67
2021/10/08 03:03:24;;;;;;;3.42;1.17;;;22.00;57.50;;;;;;5022568;28;20041;-67
2021/10/08 03:05:50;;;;;;;4.28;1.13;;;22.00;57.50;;;;;;5015807;28;20037;-67
2021/10/08 03:08:15;;;;;;;4.03;1.10;;;22.00;57.60;;;;;;5013454;28;20030;-67
2021/10/08 03:10:41;;;;;;;3.65;1.08;;;22.00;57.50;;;;;;5022067;28;20130;-66
2021/10/08 03:13:07;;;;;;;4.18;1.20;;;22.00;57.50;;;;;;5020045;28;20040;-67
2021/10/08 03:15:33;;;;;;;3.22;1.08;;;21.90;57.30;;;;;;5032467;28;20033;-67
2021/10/08 03:17:59;;;;;;;2.88;1.00;;;22.00;57.50;;;;;;5029699;28;20037;-67
2021/10/08 03:20:25;;;;;;;3.58;1.10;;;21.90;57.20;;;;;;5018145;28;20050;-67
2021/10/08 03:22:51;;;;;;;2.97;0.98;;;21.90;57.20;;;;;;5016408;28;20510;-67
2021/10/08 03:25:18;;;;;;;3.20;1.00;;;22.00;57.30;;;;;;5022837;28;20139;-67
2021/10/08 03:27:44;;;;;;;3.33;1.00;;;21.90;56.80;;;;;;5014599;28;20049;-67
2021/10/08 03:30:12;;;;;;;2.88;0.93;;;22.00;56.90;;;;;;5015853;28;20490;-67
2021/10/08 03:32:39;;;;;;;3.72;0.80;;;21.90;56.60;;;;;;5026583;28;20048;-67
2021/10/08 03:35:05;;;;;;;2.72;0.90;;;22.00;56.70;;;;;;5031242;28;20033;-67
2021/10/08 03:37:48;;;;;;;3.33;1.00;;;21.90;56.40;;;;;;5021979;28;20486;-67
2021/10/08 03:40:22;;;;;;;2.67;0.90;;;21.90;56.20;;;;;;5015965;28;20712;-67
2021/10/08 03:42:48;;;;;;;2.78;1.00;;;22.00;56.30;;;;;;5017551;28;20037;-67
2021/10/08 03:45:15;;;;;;;3.45;0.80;;;21.90;56.40;;;;;;5014665;28;20129;-67
2021/10/08 03:47:58;;;;;;;3.15;0.95;;;22.00;56.60;;;;;;5015660;28;20502;-67
2021/10/08 03:50:24;;;;;;;2.42;0.90;;;22.00;56.30;;;;;;5014847;28;20562;-67
2021/10/08 03:52:50;;;;;;;3.58;1.00;;;22.00;56.40;;;;;;5019686;28;20410;-67
2021/10/08 03:55:16;;;;;;;2.58;1.00;;;22.00;56.30;;;;;;5015152;28;20038;-67
2021/10/08 03:57:42;;;;;;;2.03;0.80;;;22.00;56.30;;;;;;5014155;28;20415;-67
2021/10/08 04:00:09;;;;;;;3.25;0.80;;;22.00;56.30;;;;;;5021340;28;20169;-66
2021/10/08 04:02:41;;;;;;;4.13;1.02;;;22.00;56.20;;;;;;5014673;28;20045;-67
2021/10/08 04:05:09;;;;;;;9.00;1.60;;;22.00;56.20;;;;;;5022525;28;20069;-66
2021/10/08 04:07:35;;;;;;;4.70;1.38;;;22.00;56.20;;;;;;5021343;28;20585;-66
2021/10/08 04:10:03;;;;;;;8.98;1.25;;;22.00;56.30;;;;;;5015110;28;20041;-66
2021/10/08 04:12:30;;;;;;;12.60;1.83;;;22.00;56.20;;;;;;5014364;28;20113;-66
2021/10/08 04:14:58;;;;;;;15.38;1.85;;;22.00;56.30;;;;;;5016805;28;20061;-64
2021/10/08 04:17:24;;;;;;;9.95;2.20;;;22.00;56.00;;;;;;5018111;28;20045;-65
2021/10/08 04:19:50;;;;;;;13.30;2.28;;;22.00;56.20;;;;;;5014608;28;20108;-66
2021/10/08 04:22:15;;;;;;;21.83;3.20;;;22.00;56.10;;;;;;5014589;28;20038;-66
2021/10/08 04:24:41;;;;;;;22.98;4.07;;;22.00;56.20;;;;;;5017666;28;20088;-66
2021/10/08 04:27:07;;;;;;;14.10;2.22;;;22.00;57.00;;;;;;5017551;28;20453;-65
2021/10/08 04:29:33;;;;;;;27.20;4.65;;;22.10;56.10;;;;;;5015559;28;20037;-64
2021/10/08 04:31:59;;;;;;;21.20;4.10;;;22.00;56.40;;;;;;5011707;28;20399;-66
2021/10/08 04:34:24;;;;;;;30.17;5.38;;;22.00;56.30;;;;;;5013676;28;20037;-66
2021/10/08 04:36:50;;;;;;;17.75;3.53;;;22.00;56.40;;;;;;5020026;28;20044;-66
2021/10/08 04:39:16;;;;;;;26.10;4.47;;;22.00;55.90;;;;;;5013736;28;20037;-66
2021/10/08 04:41:42;;;;;;;22.50;4.43;;;22.00;56.20;;;;;;5014536;28;20034;-66
2021/10/08 04:44:13;;;;;;;21.67;4.32;;;22.00;56.20;;;;;;5019214;28;20084;-66
2021/10/08 04:46:39;;;;;;;35.22;6.28;;;22.00;56.10;;;;;;5020310;28;20042;-66
2021/10/08 04:49:05;;;;;;;36.75;6.18;;;22.00;56.90;;;;;;5019581;28;20042;-65
2021/10/08 04:51:31;;;;;;;32.83;6.05;;;22.00;56.70;;;;;;5020539;28;20034;-65
2021/10/08 04:53:57;;;;;;;44.15;7.72;;;22.00;56.70;;;;;;5020771;28;20037;-65
2021/10/08 04:56:23;;;;;;;39.80;8.55;;;22.00;57.40;;;;;;5014609;28;20046;-65
2021/10/08 04:58:49;;;;;;;45.55;8.77;;;22.00;57.80;;;;;;5016995;28;20561;-65
2021/10/08 05:01:15;;;;;;;48.45;9.25;;;22.00;58.30;;;;;;5015972;28;20121;-65
2021/10/08 05:03:42;;;;;;;58.15;10.02;;;22.00;58.40;;;;;;5013108;28;20113;-65
2021/10/08 05:06:08;;;;;;;64.07;8.77;;;22.00;58.50;;;;;;5013338;28;20486;-64
2021/10/08 05:08:50;;;;;;;44.30;8.10;;;22.00;58.00;;;;;;5020477;28;20429;-64
2021/10/08 05:11:18;;;;;;;48.42;8.68;;;22.00;58.50;;;;;;5021246;28;20061;-64
2021/10/08 05:13:44;;;;;;;48.88;9.43;;;22.00;58.60;;;;;;5016570;28;20069;-64
2021/10/08 05:16:10;;;;;;;50.13;10.15;;;22.00;58.60;;;;;;5016592;28;20398;-63
2021/10/08 05:18:37;;;;;;;42.50;7.97;;;22.00;58.30;;;;;;5013626;28;20038;-63
2021/10/08 05:21:02;;;;;;;43.90;8.23;;;22.00;58.50;;;;;;5027568;28;20042;-64
2021/10/08 05:23:28;;;;;;;44.45;8.13;;;22.00;58.70;;;;;;5028201;28;20810;-64
2021/10/08 05:25:54;;;;;;;36.92;7.53;;;22.00;58.80;;;;;;5017238;28;20050;-65
2021/10/08 05:28:22;;;;;;;37.45;6.30;;;22.00;58.30;;;;;;5018075;28;20048;-65
2021/10/08 05:30:49;;;;;;;35.33;6.10;;;22.00;57.80;;;;;;5014085;28;20030;-65
2021/10/08 05:33:16;;;;;;;32.08;5.90;;;22.00;58.00;;;;;;5013518;28;20037;-65
2021/10/08 05:35:43;;;;;;;27.23;5.45;;;22.00;57.80;;;;;;5011971;28;20394;-65
2021/10/08 05:38:09;;;;;;;26.00;5.10;;;22.00;57.70;;;;;;5013490;28;20038;-64
2021/10/08 05:40:34;;;;;;;29.15;5.97;;;22.00;57.70;;;;;;5016664;28;20449;-65
2021/10/08 05:43:01;;;;;;;24.42;5.35;;;22.00;57.90;;;;;;5011436;28;20041;-65
2021/10/08 05:45:28;;;;;;;29.85;5.47;;;22.00;57.80;;;;;;5015037;28;20536;-65
2021/10/08 05:47:54;;;;;;;20.67;4.57;;;22.00;57.90;;;;;;5021396;28;20045;-64
2021/10/08 05:50:20;;;;;;;20.17;4.20;;;22.00;57.50;;;;;;5028497;28;20095;-64
2021/10/08 05:52:46;;;;;;;22.05;4.30;;;21.90;57.40;;;;;;5020128;28;20045;-65
2021/10/08 05:55:13;;;;;;;28.25;4.68;;;21.90;56.30;;;;;;5014195;28;20714;-64
2021/10/08 05:57:38;;;;;;;28.42;4.60;;;21.90;56.10;;;;;;5013970;28;20041;-65
2021/10/08 06:00:05;;;;;;;26.05;4.38;;;21.90;55.90;;;;;;5011982;28;20069;-65
2021/10/08 06:02:40;;;;;;;50.22;5.32;;;21.90;56.50;;;;;;5014569;28;20091;-65
2021/10/08 06:05:07;;;;;;;32.05;4.88;;;21.90;54.60;;;;;;5017983;28;20057;-67
2021/10/08 06:07:33;;;;;;;32.35;4.60;;;21.90;55.50;;;;;;5012535;28;20087;-69
2021/10/08 06:10:00;;;;;;;18.95;3.85;;;22.10;56.50;;;;;;5029818;28;20044;-69
2021/10/08 06:12:26;;;;;;;24.85;4.20;;;22.20;55.10;;;;;;5021640;28;20030;-69
2021/10/08 06:14:51;;;;;;;29.40;3.70;;;22.20;54.20;;;;;;5021161;28;20040;-69
2021/10/08 06:17:18;;;;;;;21.15;3.53;;;22.20;54.90;;;;;;5020920;28;20465;-69
2021/10/08 06:19:44;;;;;;;35.03;3.95;;;22.20;55.50;;;;;;5016976;28;20025;-69
2021/10/08 06:22:10;;;;;;;28.00;3.78;;;22.30;55.40;;;;;;5020931;28;20048;-69
2021/10/08 06:24:36;;;;;;;22.73;3.00;;;22.50;55.60;;;;;;5017920;28;20037;-69
2021/10/08 06:27:03;;;;;;;25.58;3.72;;;22.60;55.60;;;;;;5017582;28;20038;-68
2021/10/08 06:29:29;;;;;;;24.95;3.20;;;22.70;56.00;;;;;;5023047;28;20570;-69
2021/10/08 06:31:55;;;;;;;17.35;3.30;;;22.80;56.00;;;;;;5014978;28;20037;-70
2021/10/08 06:34:21;;;;;;;13.00;2.65;;;22.90;56.20;;;;;;5020946;28;20402;-70
2021/10/08 06:36:48;;;;;;;20.48;2.95;;;23.00;56.40;;;;;;5017209;28;20034;-70
2021/10/08 06:39:13;;;;;;;15.00;2.65;;;23.10;56.40;;;;;;5022833;28;20040;-70
2021/10/08 06:41:39;;;;;;;13.88;2.40;;;23.20;56.50;;;;;;5022086;28;20425;-70
2021/10/08 06:44:14;;;;;;;38.55;4.15;;;23.30;56.90;;;;;;5015582;28;20108;-70
2021/10/08 06:46:40;;;;;;;41.85;4.00;;;23.30;56.50;;;;;;5031868;28;20050;-70
2021/10/08 06:49:06;;;;;;;30.38;3.38;;;23.40;57.50;;;;;;5021853;28;20088;-70
2021/10/08 06:51:35;;;;;;;24.45;3.65;;;23.40;56.80;;;;;;5020027;28;20037;-70
2021/10/08 06:54:00;;;;;;;25.23;3.47;;;23.50;56.60;;;;;;5023474;28;20524;-70
2021/10/08 06:56:29;;;;;;;38.80;3.63;;;23.60;56.80;;;;;;5022803;28;20059;-70
2021/10/08 06:59:15;;;;;;;23.95;3.42;;;23.70;56.80;;;;;;5015425;28;20037;-70
2021/10/08 07:01:41;;;;;;;23.27;2.78;;;23.70;56.60;;;;;;5013833;28;20041;-67
2021/10/08 07:04:07;;;;;;;18.17;2.67;;;23.80;57.60;;;;;;5023243;28;20101;-69
2021/10/08 07:06:36;;;;;;;24.52;3.42;;;23.80;56.70;;;;;;5032198;28;20541;-70
2021/10/08 07:09:14;;;;;;;15.65;2.92;;;23.80;56.00;;;;;;5022494;28;20062;-70
2021/10/08 07:11:40;;;;;;;25.40;2.90;;;23.80;56.40;;;;;;5016990;28;20088;-70
2021/10/08 07:14:06;;;;;;;24.38;3.22;;;23.80;56.60;;;;;;5018235;28;20045;-70
2021/10/08 07:16:32;;;;;;;24.98;3.25;;;23.70;56.30;;;;;;5014681;28;20073;-69
2021/10/08 07:19:04;;;;;;;15.93;2.78;;;23.70;56.30;;;;;;5014584;28;20132;-69
2021/10/08 07:21:30;;;;;;;15.82;2.60;;;23.70;57.00;;;;;;5016669;28;20502;-69
2021/10/08 07:23:56;;;;;;;38.85;3.28;;;23.70;56.80;;;;;;5015954;28;20057;-70
2021/10/08 07:26:22;;;;;;;16.25;3.10;;;23.70;56.00;;;;;;5017123;28;20532;-70
2021/10/08 07:28:48;;;;;;;19.80;3.08;;;23.60;56.00;;;;;;5016784;28;20037;-69
2021/10/08 07:31:14;;;;;;;14.20;2.88;;;23.60;54.50;;;;;;5011915;28;20037;-70
2021/10/08 07:33:41;;;;;;;17.25;2.55;;;23.50;54.70;;;;;;5015587;28;20784;-68
2021/10/08 07:36:07;;;;;;;17.23;2.40;;;23.50;55.80;;;;;;5014894;28;20067;-69
2021/10/08 07:38:32;;;;;;;15.25;2.40;;;23.50;55.60;;;;;;5014670;28;20066;-69
2021/10/08 07:40:58;;;;;;;10.73;2.10;;;23.70;55.60;;;;;;5016793;28;20038;-69
2021/10/08 07:43:24;;;;;;;14.10;2.20;;;23.70;55.60;;;;;;5015301;28;20068;-69
2021/10/08 07:45:50;;;;;;;10.95;1.75;;;23.80;55.60;;;;;;5014263;28;20475;-69
2021/10/08 07:48:15;;;;;;;10.60;2.25;;;23.90;55.80;;;;;;5014301;28;20132;-70
2021/10/08 07:50:41;;;;;;;11.60;1.90;;;23.90;56.20;;;;;;5015003;28;20026;-69
2021/10/08 07:53:07;;;;;;;8.88;1.70;;;23.90;55.60;;;;;;5017458;28;20418;-69
2021/10/08 07:55:33;;;;;;;7.18;1.60;;;24.00;55.70;;;;;;5015979;28;20034;-69
2021/10/08 07:57:59;;;;;;;7.32;1.52;;;24.10;55.60;;;;;;5016155;28;20891;-69
2021/10/08 08:00:24;;;;;;;8.45;1.73;;;24.10;55.60;;;;;;5017421;28;20045;-69
2021/10/08 08:02:50;;;;;;;12.07;1.85;;;24.10;55.40;;;;;;5014392;28;20104;-70
2021/10/08 08:05:16;;;;;;;11.18;1.60;;;24.20;56.20;;;;;;5015254;28;20114;-70
2021/10/08 08:07:41;;;;;;;9.85;1.50;;;24.20;55.60;;;;;;5016306;28;20442;-67
2021/10/08 08:10:09;;;;;;;10.40;1.50;;;24.30;55.70;;;;;;5011875;28;20494;-67
2021/10/08 08:12:35;;;;;;;14.18;1.63;;;24.30;55.60;;;;;;5012851;28;20038;-67
2021/10/08 08:15:03;;;;;;;13.80;1.48;;;24.30;55.50;;;;;;5014217;28;20078;-67
2021/10/08 08:17:29;;;;;;;7.35;1.50;;;24.30;55.40;;;;;;5014316;28;20053;-68
2021/10/08 08:19:55;;;;;;;7.70;1.40;;;24.40;55.70;;;;;;5015882;28;20045;-68
2021/10/08 08:22:20;;;;;;;6.93;1.27;;;24.40;55.80;;;;;;5010500;28;20449;-68
2021/10/08 08:24:46;;;;;;;11.70;2.97;;;24.50;55.80;;;;;;5013066;28;20115;-68
2021/10/08 08:27:12;;;;;;;6.63;1.60;;;24.50;55.60;;;;;;5015080;28;20176;-67
2021/10/08 08:29:38;;;;;;;10.48;1.50;;;24.50;55.60;;;;;;5015640;28;20056;-67
2021/10/08 08:32:04;;;;;;;10.18;1.42;;;24.50;55.60;;;;;;5011131;28;20029;-68
2021/10/08 08:34:29;;;;;;;7.05;1.38;;;24.50;55.90;;;;;;5013113;28;20034;-68
2021/10/08 08:36:55;;;;;;;5.47;1.33;;;24.50;56.20;;;;;;5014690;28;20887;-70
2021/10/08 08:39:21;;;;;;;6.85;1.40;;;24.50;55.40;;;;;;5014819;28;20049;-71
2021/10/08 08:41:48;;;;;;;5.70;1.10;;;24.60;55.50;;;;;;5014399;28;20124;-69
2021/10/08 08:44:14;;;;;;;5.78;1.20;;;24.50;55.30;;;;;;5011158;28;20052;-69
2021/10/08 08:46:40;;;;;;;4.93;1.10;;;24.60;55.50;;;;;;5013589;28;20042;-70
2021/10/08 08:49:05;;;;;;;8.60;1.40;;;24.60;55.70;;;;;;5014813;28;20037;-70
2021/10/08 08:51:32;;;;;;;3.97;1.13;;;24.60;55.60;;;;;;5014909;28;20407;-69
2021/10/08 08:54:06;;;;;;;6.15;1.40;;;24.60;55.40;;;;;;5013413;28;20041;-70
2021/10/08 08:56:33;;;;;;;22.23;1.40;;;24.60;55.20;;;;;;5016160;28;20053;-69
2021/10/08 08:59:05;;;;;;;15.13;1.30;;;24.60;56.50;;;;;;5012143;28;20495;-69
2021/10/08 09:01:31;;;;;;;11.57;1.30;;;24.60;55.30;;;;;;5012191;28;20176;-68
2021/10/08 09:04:05;;;;;;;7.10;1.38;;;24.60;55.30;;;;;;5014125;28;20034;-69
2021/10/08 09:06:38;;;;;;;9.70;1.30;;;24.60;55.40;;;;;;5013404;28;20050;-69
2021/10/08 09:09:18;;;;;;;5.53;1.20;;;24.60;55.50;;;;;;5011487;28;20292;-69
2021/10/08 09:11:45;;;;;;;4.00;0.90;;;24.70;55.70;;;;;;5013220;28;20383;-68
2021/10/08 09:14:22;;;;;;;7.20;1.35;;;24.70;55.50;;;;;;5012735;28;20041;-68
2021/10/08 09:17:07;;;;;;;6.57;1.30;;;24.70;55.30;;;;;;5013737;28;20048;-69
2021/10/08 09:20:01;;;;;;;5.38;1.10;;;24.70;55.20;;;;;;5012432;28;20096;-69
2021/10/08 09:22:39;;;;;;;4.63;0.95;;;24.70;55.30;;;;;;5012822;28;20491;-69
2021/10/08 09:25:21;;;;;;;4.63;0.98;;;24.80;55.40;;;;;;5013920;28;20037;-69
2021/10/08 09:27:56;;;;;;;4.55;1.02;;;24.80;55.70;;;;;;5013460;28;20657;-68
2021/10/08 09:30:43;;;;;;;4.18;1.02;;;24.80;55.60;;;;;;5012321;28;20907;-69
2021/10/08 09:33:11;;;;;;;4.53;0.90;;;24.80;55.60;;;;;;5013442;28;20037;-68
2021/10/08 09:35:38;;;;;;;5.25;1.10;;;24.80;56.00;;;;;;5013694;28;20112;-69
2021/10/08 09:38:11;;;;;;;7.03;1.33;;;24.80;55.40;;;;;;5011119;28;20065;-69
2021/10/08 09:40:44;;;;;;;7.95;1.10;;;24.90;55.50;;;;;;5012686;28;20042;-69
2021/10/08 09:43:13;;;;;;;4.78;0.80;;;24.90;55.60;;;;;;5014954;28;20133;-68
2021/10/08 09:45:50;;;;;;;3.95;0.98;;;24.90;55.50;;;;;;5012811;28;20464;-69
2021/10/08 09:48:15;;;;;;;4.65;0.90;;;24.90;55.40;;;;;;5015975;28;20030;-68
2021/10/08 09:50:57;;;;;;;5.20;1.00;;;24.90;55.40;;;;;;5017307;28;20906;-68
2021/10/08 09:53:23;;;;;;;4.15;1.00;;;24.90;55.50;;;;;;5017054;28;20486;-68
2021/10/08 09:55:52;;;;;;;3.22;0.88;;;25.00;55.80;;;;;;5013952;28;20048;-68
2021/10/08 09:58:18;;;;;;;4.80;0.90;;;25.00;56.00;;;;;;5016704;28;20161;-68
2021/10/08 10:01:06;;;;;;;3.13;0.90;;;25.00;55.80;;;;;;5016440;28;20057;-69
2021/10/08 10:03:32;;;;;;;7.10;1.10;;;25.00;55.60;;;;;;5017781;28;20041;-69
2021/10/08 10:06:04;;;;;;;8.38;0.98;;;25.00;56.30;;;;;;5018029;28;20098;-68
2021/10/08 10:08:30;;;;;;;4.20;0.90;;;25.00;55.80;;;;;;5021154;28;20060;-69
2021/10/08 10:10:56;;;;;;;5.93;1.00;;;25.00;56.20;;;;;;5019469;28;20045;-70
2021/10/08 10:13:22;;;;;;;8.88;1.27;;;25.00;55.60;;;;;;5017269;28;20083;-69
2021/10/08 10:15:48;;;;;;;5.47;1.20;;;25.00;55.80;;;;;;5016547;28;21281;-68
2021/10/08 10:18:17;;;;;;;5.05;1.40;;;24.90;54.80;;;;;;5016903;28;20053;-68
2021/10/08 10:20:48;;;;;;;5.63;1.20;;;24.90;54.30;;;;;;5018185;28;20120;-69
2021/10/08 10:23:17;;;;;;;7.97;1.20;;;24.70;54.00;;;;;;5017068;28;20383;-68
2021/10/08 10:25:44;;;;;;;10.38;1.50;;;24.60;54.40;;;;;;5017184;28;20034;-68
2021/10/08 10:28:10;;;;;;;6.97;1.40;;;24.40;53.60;;;;;;5014699;28;20049;-69
2021/10/08 10:30:37;;;;;;;6.10;1.00;;;24.20;54.10;;;;;;5014144;28;20291;-68
2021/10/08 10:33:04;;;;;;;8.05;1.48;;;24.10;54.30;;;;;;5016964;28;20033;-68
2021/10/08 10:35:50;;;;;;;10.15;1.50;;;23.90;54.40;;;;;;5016416;28;20038;-68
2021/10/08 10:38:37;;;;;;;7.18;1.20;;;23.80;54.60;;;;;;5014353;28;20038;-68
2021/10/08 10:41:09;;;;;;;5.93;1.20;;;23.70;54.50;;;;;;5018722;28;20054;-68
2021/10/08 10:43:42;;;;;;;5.20;1.10;;;23.60;54.60;;;;;;5018358;28;20128;-68
2021/10/08 10:46:26;;;;;;;6.20;1.17;;;23.50;54.60;;;;;;5014807;28;20533;-68
2021/10/08 10:49:29;;;;;;;5.53;1.10;;;23.40;54.80;;;;;;5014182;28;20052;-68
2021/10/08 10:52:01;;;;;;;3.88;0.98;;;23.40;55.60;;;;;;5000442;28;20041;-68
2021/10/08 10:54:40;;;;;;;3.88;1.05;;;23.30;54.80;;;;;;5015476;28;20892;-68
2021/10/08 10:57:13;;;;;;;5.70;1.25;;;23.30;55.00;;;;;;5013142;28;20103;-67
2021/10/08 10:59:41;;;;;;;7.50;1.52;;;23.30;55.00;;;;;;5016029;28;20037;-68
2021/10/08 11:02:19;;;;;;;4.32;1.10;;;23.20;54.90;;;;;;5015665;28;20123;-68
2021/10/08 11:05:07;;;;;;;9.07;1.33;;;23.20;55.10;;;;;;5016912;28;20041;-67
2021/10/08 11:07:32;;;;;;;3.40;1.08;;;23.10;55.00;;;;;;5015927;28;20042;-67
2021/10/08 11:10:04;;;;;;;6.70;1.08;;;23.10;55.20;;;;;;5015701;28;20509;-68
2021/10/08 11:12:41;;;;;;;8.45;1.35;;;23.10;55.30;;;;;;5015988;28;20034;-68
2021/10/08 11:15:19;;;;;;;5.78;1.13;;;23.00;55.20;;;;;;5016369;28;20080;-68
2021/10/08 11:17:49;;;;;;;5.80;0.90;;;23.00;55.20;;;;;;5013816;28;20490;-68
2021/10/08 11:20:30;;;;;;;3.28;0.90;;;23.00;55.20;;;;;;5016511;28;20045;-68
2021/10/08 11:23:07;;;;;;;4.85;1.10;;;23.00;55.20;;;;;;5015683;28;20454;-68
2021/10/08 11:25:45;;;;;;;4.90;1.23;;;23.00;55.90;;;;;;5012814;28;20041;-68
2021/10/08 11:28:11;;;;;;;5.25;1.52;;;23.00;55.40;;;;;;5014387;28;20049;-68
2021/10/08 11:30:37;;;;;;;5.10;1.00;;;22.90;55.20;;;;;;5014868;28;20441;-68
2021/10/08 11:33:04;;;;;;;6.82;1.00;;;22.90;55.40;;;;;;5014774;28;20030;-68
2021/10/08 11:35:32;;;;;;;3.92;0.93;;;22.90;55.40;;;;;;5017537;28;20037;-67
2021/10/08 11:37:58;;;;;;;4.18;1.00;;;22.90;55.40;;;;;;5016277;28;20049;-68
2021/10/08 11:40:33;;;;;;;4.65;0.95;;;22.90;55.40;;;;;;5014194;28;20064;-69
2021/10/08 11:43:03;;;;;;;4.55;1.10;;;22.90;55.40;;;;;;5015682;28;20100;-67
2021/10/08 11:45:49;;;;;;;3.63;0.98;;;22.90;55.50;;;;;;5015001;28;20038;-67
2021/10/08 11:50:46;;;;;;;4.20;1.10;;;22.90;55.50;;;;;;5014746;28;20041;-68
2021/10/08 11:53:12;;;;;;;3.95;1.02;;;22.90;55.60;;;;;;5014298;28;20080;-67
2021/10/08 11:55:41;;;;;;;10.43;1.73;;;22.80;55.20;;;;;;5014907;28;20076;-67
2021/10/08 11:58:16;;;;;;;5.85;1.40;;;22.90;54.30;;;;;;5014501;28;20038;-68
2021/10/08 12:00:44;;;;;;;11.32;1.70;;;22.90;53.70;;;;;;5013620;28;20148;-69
2021/10/08 12:03:18;;;;;;;6.18;1.40;;;23.00;53.10;;;;;;5013467;28;20124;-67
2021/10/08 12:05:57;;;;;;;8.88;2.00;;;23.10;52.60;;;;;;5015497;28;20052;-68
2021/10/08 12:08:37;;;;;;;7.72;1.77;;;23.20;52.50;;;;;;5014395;28;20081;-67
2021/10/08 12:11:11;;;;;;;9.32;1.80;;;23.20;52.80;;;;;;5016248;28;20209;-68
2021/10/08 12:13:51;;;;;;;5.40;1.40;;;23.20;52.00;;;;;;5012924;28;20124;-68
2021/10/08 12:16:19;;;;;;;6.20;1.80;;;23.30;51.80;;;;;;5013369;28;20049;-66
2021/10/08 12:18:48;;;;;;;18.20;1.70;;;23.20;51.50;;;;;;5015600;28;20057;-66
2021/10/08 12:21:18;;;;;;;7.60;2.00;;;23.20;51.30;;;;;;5013489;28;20049;-66
2021/10/08 12:23:52;;;;;;;7.75;2.22;;;23.00;50.50;;;;;;5014393;28;20486;-66
2021/10/08 12:26:19;;;;;;;11.47;2.33;;;22.90;50.00;;;;;;5013987;28;20102;-66
2021/10/08 12:28:50;;;;;;;12.48;2.40;;;22.80;50.00;;;;;;5014025;28;20281;-67
2021/10/08 12:31:16;;;;;;;13.90;2.30;;;22.60;49.50;;;;;;5014137;28;20519;-66
2021/10/08 12:33:43;;;;;;;15.90;2.28;;;22.60;50.30;;;;;;5012745;28;20121;-66
2021/10/08 12:36:23;;;;;;;14.60;2.03;;;22.60;50.10;;;;;;5014473;28;20038;-67
2021/10/08 12:39:06;;;;;;;8.80;2.03;;;22.50;49.60;;;;;;5012712;28;20045;-67
2021/10/08 12:41:38;;;;;;;9.90;2.22;;;22.50;49.70;;;;;;5014890;28;20087;-67
2021/10/08 12:44:13;;;;;;;6.93;2.03;;;22.50;49.70;;;;;;5013872;28;20040;-66
2021/10/08 12:46:44;;;;;;;6.55;2.30;;;22.50;49.70;;;;;;5014537;28;20124;-67
2021/10/08 12:49:11;;;;;;;9.15;2.50;;;22.40;49.80;;;;;;5014421;28;20042;-66
2021/10/08 12:51:49;;;;;;;7.30;2.22;;;22.40;50.00;;;;;;5013456;28;20069;-66
2021/10/08 12:54:24;;;;;;;18.75;2.72;;;22.30;49.80;;;;;;5011490;28;20069;-66